SBNT/NAT METAR and TAF weather

Enter ICAO airport designator
Station Type Date Time Source
SBNT METAR 2019/08/24 09:00 UTC NOAA

SBNT 240900Z 19005KT CAVOK 21/19 Q1017


Station Type Date Time Source
SBNT Decoded METAR 2019/08/24 09:00 UTC NOAA

Station name not available
Aug 24, 2019 - 05:00 AM EDT / 2019.08.24 0900 UTC
Wind: from the S (190 degrees) at 6 MPH (5 KT):0
Visibility: greater than 7 mile(s):0
Temperature: 69 F (21 C)
Dew Point: 66 F (19 C)
Relative Humidity: 88%
Pressure (altimeter): 30.03 in. Hg (1017 hPa)
ob: SBNT 240900Z 19005KT CAVOK 21/19 Q1017
cycle: 9

Station Type Date Time Source
SBNT TAF 2019/08/24 12:33 UTC NOAA

TAF SBNT 241000Z 2412/2424 16011KT 8000 SCT020 TX28/2417Z TN24/2423Z
BECMG 2414/2416 12014KT SCT025
BECMG 2422/2424 15011KT CAVOK
RMK PCQ

Example: see airport list